Time;durP1;ratioP1;P1;durP2;ratioP2;P2;SDS_P1;SDS_P2;PMS_P1;PMS_P2;Temp;Humidity;BMP_temperature;BMP_pressure;BME280_temperature;BME280_humidity;BME280_pressure;Samples;Min_cycle;Max_cycle;Signal;HPM_P1;HPM_P2
2022/08/17 00:01:11;;;;;;;;;;;;;;;;;;2207584;67;1294;-54
2022/08/17 00:03:46;;;;;;;;;;;;;;;;;;2208537;59;1429;-55
2022/08/17 00:06:21;;;;;;;;;;;;;;;;;;2207802;67;1242;-53
2022/08/17 00:08:56;;;;;;;;;;;;;;;;;;2208684;67;1182;-54
2022/08/17 00:11:33;;;;;;;;;;;;;;;;;;2208242;59;1930;-54
2022/08/17 00:14:08;;;;;;;;;;;;;;;;;;2207627;67;1232;-54
2022/08/17 00:16:43;;;;;;;;;;;;;;;;;;2207993;67;1128;-54
2022/08/17 00:19:16;;;;;;;;;;;;;;;;;;2207767;67;1187;-55
2022/08/17 00:21:50;;;;;;;;;;;;;;;;;;2207422;59;1371;-55
2022/08/17 00:24:23;;;;;;;;;;;;;;;;;;2207660;67;1192;-53
2022/08/17 00:27:00;;;;;;;;;;;;;;;;;;2208036;67;1118;-54
2022/08/17 00:29:33;;;;;;;;;;;;;;;;;;2207510;67;1215;-54
2022/08/17 00:32:07;;;;;;;;;;;;;;;;;;2207319;67;1935;-54
2022/08/17 00:34:40;;;;;;;;;;;;;;;;;;2207816;67;1196;-54
2022/08/17 00:37:13;;;;;;;;;;;;;;;;;;2207510;59;1322;-54
2022/08/17 00:39:46;;;;;;;;;;;;;;;;;;2207834;67;1188;-54
2022/08/17 00:42:23;;;;;;;;;;;;;;;;;;2207298;67;1241;-54
2022/08/17 00:44:56;;;;;;;;;;;;;;;;;;2209043;59;1377;-53
2022/08/17 00:47:29;;;;;;;;;;;;;;;;;;2208448;67;1815;-53
2022/08/17 00:50:03;;;;;;;;;;;;;;;;;;2208175;67;1200;-55
2022/08/17 00:52:39;;;;;;;;;;;;;;;;;;2209116;67;1937;-53
2022/08/17 00:55:13;;;;;;;;;;;;;;;;;;2207375;67;1170;-56
2022/08/17 00:57:52;;;;;;;;;;;;;;;;;;2207602;67;1057;-55
2022/08/17 01:00:27;;;;;;;;;;;;;;;;;;2207157;67;1195;-54
2022/08/17 01:03:02;;;;;;;;;;;;;;;;;;2207729;59;1590;-53
2022/08/17 01:05:37;;;;;;;;;;;;;;;;;;2207504;67;1226;-54
2022/08/17 01:08:12;;;;;;;;;;;;;;;;;;2207018;67;1095;-54
2022/08/17 01:10:46;;;;;;;;;;;;;;;;;;2207494;59;1278;-54
2022/08/17 01:13:22;;;;;;;;;;;;;;;;;;2207351;67;1927;-54
2022/08/17 01:15:58;;;;;;;;;;;;;;;;;;2207500;67;1283;-54
2022/08/17 01:18:32;;;;;;;;;;;;;;;;;;2207208;67;1100;-54
2022/08/17 01:21:09;;;;;;;;;;;;;;;;;;2206737;59;1197;-53
2022/08/17 01:23:45;;;;;;;;;;;;;;;;;;2207305;67;1313;-54
2022/08/17 01:26:18;;;;;;;;;;;;;;;;;;2206963;67;1270;-54
2022/08/17 01:28:53;;;;;;;;;;;;;;;;;;2207710;67;1142;-55
2022/08/17 01:31:29;;;;;;;;;;;;;;;;;;2208309;67;1180;-54
2022/08/17 01:34:04;;;;;;;;;;;;;;;;;;2208347;67;1981;-54
2022/08/17 01:36:38;;;;;;;;;;;;;;;;;;2208636;59;1274;-54
2022/08/17 01:39:18;;;;;;;;;;;;;;;;;;2208487;67;1076;-56
2022/08/17 01:41:54;;;;;;;;;;;;;;;;;;2208607;67;1372;-54
2022/08/17 01:44:28;;;;;;;;;;;;;;;;;;2208250;59;1289;-54
2022/08/17 01:47:02;;;;;;;;;;;;;;;;;;2208439;67;1302;-54
2022/08/17 01:49:35;;;;;;;;;;;;;;;;;;2208158;67;1150;-53
2022/08/17 01:52:11;;;;;;;;;;;;;;;;;;2207658;67;1937;-54
2022/08/17 01:54:48;;;;;;;;;;;;;;;;;;2208569;67;1275;-54
2022/08/17 01:57:21;;;;;;;;;;;;;;;;;;2208315;67;1215;-54
2022/08/17 01:59:54;;;;;;;;;;;;;;;;;;2208363;67;1117;-53
2022/08/17 02:02:28;;;;;;;;;;;;;;;;;;2207617;59;1678;-53
2022/08/17 02:05:01;;;;;;;;;;;;;;;;;;2207320;59;1235;-54
2022/08/17 02:07:35;;;;;;;;;;;;;;;;;;2207844;67;1300;-53
2022/08/17 02:10:11;;;;;;;;;;;;;;;;;;2207641;67;1213;-54
2022/08/17 02:12:44;;;;;;;;;;;;;;;;;;2208293;59;1956;-54
2022/08/17 02:15:19;;;;;;;;;;;;;;;;;;2208074;67;1190;-57
2022/08/17 02:17:52;;;;;;;;;;;;;;;;;;2208033;59;1264;-54
2022/08/17 02:20:26;;;;;;;;;;;;;;;;;;2207678;59;1267;-53
2022/08/17 02:22:59;;;;;;;;;;;;;;;;;;2208078;67;1262;-54
2022/08/17 02:25:36;;;;;;;;;;;;;;;;;;2207586;67;1172;-53
2022/08/17 02:28:09;;;;;;;;;;;;;;;;;;2207230;67;1169;-55
2022/08/17 02:30:43;;;;;;;;;;;;;;;;;;2207561;67;1171;-54
2022/08/17 02:33:16;;;;;;;;;;;;;;;;;;2207885;67;1940;-55
2022/08/17 02:35:49;;;;;;;;;;;;;;;;;;2207798;59;1763;-53
2022/08/17 02:38:22;;;;;;;;;;;;;;;;;;2207667;67;1166;-55
2022/08/17 02:40:58;;;;;;;;;;;;;;;;;;2207575;67;1207;-54
2022/08/17 02:43:31;;;;;;;;;;;;;;;;;;2207542;67;1183;-54
2022/08/17 02:46:04;;;;;;;;;;;;;;;;;;2207677;67;1153;-54
2022/08/17 02:48:38;;;;;;;;;;;;;;;;;;2207896;67;1087;-53
2022/08/17 02:51:11;;;;;;;;;;;;;;;;;;2208323;59;1614;-54
2022/08/17 02:53:45;;;;;;;;;;;;;;;;;;2208710;67;2110;-56
2022/08/17 02:56:21;;;;;;;;;;;;;;;;;;2208947;67;1311;-55
2022/08/17 02:58:54;;;;;;;;;;;;;;;;;;2208339;67;1290;-54
2022/08/17 03:01:27;;;;;;;;;;;;;;;;;;2208083;59;1534;-55
2022/08/17 03:04:01;;;;;;;;;;;;;;;;;;2207418;59;2489;-54
2022/08/17 03:06:34;;;;;;;;;;;;;;;;;;2208044;59;1278;-53
2022/08/17 03:09:07;;;;;;;;;;;;;;;;;;2208486;59;1230;-53
2022/08/17 03:11:43;;;;;;;;;;;;;;;;;;2208218;59;1301;-55
2022/08/17 03:14:16;;;;;;;;;;;;;;;;;;2208628;67;1969;-54
2022/08/17 03:16:49;;;;;;;;;;;;;;;;;;2208740;67;1173;-53
2022/08/17 03:19:22;;;;;;;;;;;;;;;;;;2208325;67;1297;-53
2022/08/17 03:21:56;;;;;;;;;;;;;;;;;;2208176;59;1246;-54
2022/08/17 03:24:29;;;;;;;;;;;;;;;;;;2208108;67;1200;-54
2022/08/17 03:27:05;;;;;;;;;;;;;;;;;;2208702;67;1262;-55
2022/08/17 03:29:38;;;;;;;;;;;;;;;;;;2207164;67;1102;-54
2022/08/17 03:32:12;;;;;;;;;;;;;;;;;;2208510;67;1211;-53
2022/08/17 03:34:45;;;;;;;;;;;;;;;;;;2208069;67;1935;-53
2022/08/17 03:37:18;;;;;;;;;;;;;;;;;;2207931;59;1380;-54
2022/08/17 03:39:53;;;;;;;;;;;;;;;;;;2208320;67;1429;-53
2022/08/17 03:42:29;;;;;;;;;;;;;;;;;;2208152;67;1253;-54
2022/08/17 03:45:03;;;;;;;;;;;;;;;;;;2208486;59;1310;-56
2022/08/17 03:58:58;;;;;;;;;;;;;;;;;;2208508;67;1187;-53
2022/08/17 04:01:31;;;;;;;;;;;;;;;;;;2207317;59;1564;-53
2022/08/17 04:04:04;;;;;;;;;;;;;;;;;;2208043;59;1360;-55
2022/08/17 04:06:37;;;;;;;;;;;;;;;;;;2208230;67;1162;-53
2022/08/17 04:09:11;;;;;;;;;;;;;;;;;;2208188;67;1098;-53
2022/08/17 04:11:44;;;;;;;;;;;;;;;;;;2207765;59;1212;-53
2022/08/17 04:14:20;;;;;;;;;;;;;;;;;;2207927;59;1974;-53
2022/08/17 04:16:54;;;;;;;;;;;;;;;;;;2207998;67;1171;-53
2022/08/17 04:19:27;;;;;;;;;;;;;;;;;;2208175;67;1147;-53
2022/08/17 04:33:12;;;;;;;;;;;;;;;;;;2300980;53;1962;-65
2022/08/17 04:35:47;;;;;;;;;;;;;;;;;;2217701;58;1451;-63
2022/08/17 04:38:21;;;;;;;;;;;;;;;;;;2216862;58;2328;-64
2022/08/17 04:43:45;;;;;;;;;;;;;;;;;;2214604;59;1067;-65
2022/08/17 04:46:19;;;;;;;;;;;;;;;;;;2215077;66;1249;-65
2022/08/17 04:48:56;;;;;;;;;;;;;;;;;;2214772;59;1218;-63
2022/08/17 04:51:32;;;;;;;;;;;;;;;;;;2214638;59;1700;-64
2022/08/17 04:54:06;;;;;;;;;;;;;;;;;;2213552;59;2000;-64
2022/08/17 04:56:40;;;;;;;;;;;;;;;;;;2213951;59;2309;-64
2022/08/17 04:59:15;;;;;;;;;;;;;;;;;;2214643;66;1119;-64
2022/08/17 05:01:49;;;;;;;;;;;;;;;;;;2215064;58;2318;-64
2022/08/17 05:04:27;;;;;;;;;;;;;;;;;;2212421;59;2514;-65
2022/08/17 05:07:00;;;;;;;;;;;;;;;;;;2213532;59;1699;-64
2022/08/17 05:09:33;;;;;;;;;;;;;;;;;;2212267;59;2493;-65
2022/08/17 05:12:07;;;;;;;;;;;;;;;;;;2213247;59;1615;-65
2022/08/17 05:14:40;;;;;;;;;;;;;;;;;;2212512;59;1935;-65
2022/08/17 05:17:13;;;;;;;;;;;;;;;;;;2211923;59;2412;-64
2022/08/17 05:19:50;;;;;;;;;;;;;;;;;;2212299;59;2547;-62
2022/08/17 05:22:23;;;;;;;;;;;;;;;;;;2212204;59;2309;-64
2022/08/17 05:24:56;;;;;;;;;;;;;;;;;;2212304;59;1847;-65
2022/08/17 05:27:29;;;;;;;;;;;;;;;;;;2213896;66;1181;-64
2022/08/17 05:30:02;;;;;;;;;;;;;;;;;;2214916;66;1189;-64
2022/08/17 05:32:36;;;;;;;;;;;;;;;;;;2212777;59;2325;-65
2022/08/17 05:35:12;;;;;;;;;;;;;;;;;;2211110;59;1937;-64
2022/08/17 05:37:46;;;;;;;;;;;;;;;;;;2213409;59;2384;-64
2022/08/17 05:40:20;;;;;;;;;;;;;;;;;;2213263;59;3148;-64
2022/08/17 05:42:54;;;;;;;;;;;;;;;;;;2213928;59;1616;-64
2022/08/17 05:45:27;;;;;;;;;;;;;;;;;;2213020;59;1811;-64
2022/08/17 05:48:01;;;;;;;;;;;;;;;;;;2215482;59;1412;-65
2022/08/17 05:50:43;;;;;;;;;;;;;;;;;;2214328;59;2449;-65
2022/08/17 05:53:23;;;;;;;;;;;;;;;;;;2214156;59;1931;-64
2022/08/17 05:56:01;;;;;;;;;;;;;;;;;;2214257;59;1331;-62
2022/08/17 05:58:37;;;;;;;;;;;;;;;;;;2215294;66;1087;-61
2022/08/17 06:01:15;;;;;;;;;;;;;;;;;;2213986;59;1305;-65
2022/08/17 06:03:50;;;;;;;;;;;;;;;;;;2214868;59;1371;-62
2022/08/17 06:06:33;;;;;;;;;;;;;;;;;;2214769;66;1215;-60
2022/08/17 06:09:12;;;;;;;;;;;;;;;;;;2215308;59;1455;-65
2022/08/17 06:11:49;;;;;;;;;;;;;;;;;;2217800;58;1888;-60
2022/08/17 06:14:31;;;;;;;;;;;;;;;;;;2214109;66;1991;-63
2022/08/17 06:17:06;;;;;;;;;;;;;;;;;;2215551;66;1273;-65
2022/08/17 06:19:41;;;;;;;;;;;;;;;;;;2215147;59;1738;-63
2022/08/17 06:22:19;;;;;;;;;;;;;;;;;;2215297;59;1292;-61
2022/08/17 06:24:55;;;;;;;;;;;;;;;;;;2213885;66;1416;-65
2022/08/17 06:27:32;;;;;;;;;;;;;;;;;;2215316;62;1202;-63
2022/08/17 06:30:09;;;;;;;;;;;;;;;;;;2215163;66;1189;-67
2022/08/17 06:32:44;;;;;;;;;;;;;;;;;;2215853;58;1225;-62
2022/08/17 06:35:20;;;;;;;;;;;;;;;;;;2214513;66;1928;-62
2022/08/17 06:38:11;;;;;;;;;;;;;;;;;;2216459;59;1640;-61
2022/08/17 06:40:52;;;;;;;;;;;;;;;;;;2215863;66;1211;-62
2022/08/17 06:43:35;;;;;;;;;;;;;;;;;;2213975;59;1314;-64
2022/08/17 06:46:10;;;;;;;;;;;;;;;;;;2214006;66;1271;-63
2022/08/17 06:48:47;;;;;;;;;;;;;;;;;;2215469;66;1282;-60
2022/08/17 06:51:24;;;;;;;;;;;;;;;;;;2214448;66;1227;-60
2022/08/17 06:54:06;;;;;;;;;;;;;;;;;;2218224;59;2395;-60
2022/08/17 06:56:42;;;;;;;;;;;;;;;;;;2215532;66;1778;-62
2022/08/17 06:59:19;;;;;;;;;;;;;;;;;;2215095;61;1412;-64
2022/08/17 07:01:55;;;;;;;;;;;;;;;;;;2215372;59;1638;-64
2022/08/17 07:04:32;;;;;;;;;;;;;;;;;;2215127;59;1239;-59
2022/08/17 07:08:00;;;;;;;;;;;;;;;;;;2214964;66;1138;-64
2022/08/17 07:10:04;;;;;;;;;;;;;;;;;;2215696;66;1773;-64
2022/08/17 07:12:40;;;;;;;;;;;;;;;;;;2214526;66;1188;-64
2022/08/17 07:15:15;;;;;;;;;;;;;;;;;;2213984;66;2019;-63
2022/08/17 07:17:49;;;;;;;;;;;;;;;;;;2215088;66;1241;-61
2022/08/17 07:20:24;;;;;;;;;;;;;;;;;;2215054;66;1065;-62
2022/08/17 07:23:05;;;;;;;;;;;;;;;;;;2216276;59;1249;-65
2022/08/17 07:25:41;;;;;;;;;;;;;;;;;;2214463;59;1176;-64
2022/08/17 07:28:15;;;;;;;;;;;;;;;;;;2214790;66;1091;-65
2022/08/17 07:30:52;;;;;;;;;;;;;;;;;;2214805;66;1285;-63
2022/08/17 07:33:29;;;;;;;;;;;;;;;;;;2214511;58;1326;-63
2022/08/17 07:36:02;;;;;;;;;;;;;;;;;;2215357;59;1939;-65
2022/08/17 07:38:36;;;;;;;;;;;;;;;;;;2214236;59;1255;-61
2022/08/17 07:41:13;;;;;;;;;;;;;;;;;;2213527;66;1793;-64
2022/08/17 07:43:51;;;;;;;;;;;;;;;;;;2214982;59;1266;-62
2022/08/17 07:49:21;;;;;;;;;;;;;;;;;;2213180;66;1232;-63
2022/08/17 07:51:57;;;;;;;;;;;;;;;;;;2214526;66;1267;-63
2022/08/17 07:54:32;;;;;;;;;;;;;;;;;;2215082;66;1936;-62
2022/08/17 07:57:27;;;;;;;;;;;;;;;;;;2215553;59;1563;-64
2022/08/17 08:00:15;;;;;;;;;;;;;;;;;;2215416;59;1251;-63
2022/08/17 08:03:02;;;;;;;;;;;;;;;;;;2214945;59;1607;-65
2022/08/17 08:05:35;;;;;;;;;;;;;;;;;;2215416;59;1137;-64
2022/08/17 08:08:21;;;;;;;;;;;;;;;;;;2214577;59;1121;-65
2022/08/17 08:11:03;;;;;;;;;;;;;;;;;;2215667;59;1270;-62
2022/08/17 08:13:44;;;;;;;;;;;;;;;;;;2214893;66;1169;-62
2022/08/17 08:16:24;;;;;;;;;;;;;;;;;;2215786;66;1934;-66
2022/08/17 08:18:59;;;;;;;;;;;;;;;;;;2216810;59;1176;-65
2022/08/17 08:21:45;;;;;;;;;;;;;;;;;;2215327;59;1202;-61
2022/08/17 08:24:28;;;;;;;;;;;;;;;;;;2214812;59;1148;-62
2022/08/17 08:27:09;;;;;;;;;;;;;;;;;;2215522;59;1222;-63
2022/08/17 08:29:52;;;;;;;;;;;;;;;;;;2215426;66;1020;-64
2022/08/17 08:32:34;;;;;;;;;;;;;;;;;;2215728;59;1163;-63
2022/08/17 08:35:14;;;;;;;;;;;;;;;;;;2214479;66;1981;-63
2022/08/17 08:37:52;;;;;;;;;;;;;;;;;;2214606;59;1478;-63
2022/08/17 08:40:33;;;;;;;;;;;;;;;;;;2218469;59;1259;-66
2022/08/17 08:43:12;;;;;;;;;;;;;;;;;;2214957;59;1250;-65
2022/08/17 08:45:55;;;;;;;;;;;;;;;;;;2215666;66;1003;-65
2022/08/17 08:48:42;;;;;;;;;;;;;;;;;;2214703;66;1230;-66
2022/08/17 08:51:18;;;;;;;;;;;;;;;;;;2213633;59;1690;-65
2022/08/17 08:53:57;;;;;;;;;;;;;;;;;;2214424;66;1417;-65
2022/08/17 08:56:34;;;;;;;;;;;;;;;;;;2213663;66;1933;-66
2022/08/17 08:59:12;;;;;;;;;;;;;;;;;;2214355;59;1255;-65
2022/08/17 09:01:52;;;;;;;;;;;;;;;;;;2214662;59;1608;-66
2022/08/17 09:04:36;;;;;;;;;;;;;;;;;;2213454;59;1203;-65
2022/08/17 09:07:14;;;;;;;;;;;;;;;;;;2214615;66;1211;-65
2022/08/17 09:09:51;;;;;;;;;;;;;;;;;;2214293;66;1249;-67
2022/08/17 09:12:30;;;;;;;;;;;;;;;;;;2215076;66;1225;-65
2022/08/17 09:15:07;;;;;;;;;;;;;;;;;;2214477;66;1983;-66
2022/08/17 09:17:47;;;;;;;;;;;;;;;;;;2215796;66;1114;-65
2022/08/17 09:20:23;;;;;;;;;;;;;;;;;;2214572;66;1190;-66
2022/08/17 09:22:59;;;;;;;;;;;;;;;;;;2214650;66;1366;-66
2022/08/17 09:25:34;;;;;;;;;;;;;;;;;;2214546;66;1285;-66
2022/08/17 09:28:09;;;;;;;;;;;;;;;;;;2214402;66;1326;-66
2022/08/17 09:30:45;;;;;;;;;;;;;;;;;;2214436;66;1207;-66
2022/08/17 09:33:25;;;;;;;;;;;;;;;;;;2213849;59;1181;-61
2022/08/17 09:36:01;;;;;;;;;;;;;;;;;;2213590;59;1995;-64
2022/08/17 09:38:36;;;;;;;;;;;;;;;;;;2214569;66;1060;-63
2022/08/17 09:41:15;;;;;;;;;;;;;;;;;;2213550;66;1208;-61
2022/08/17 09:43:53;;;;;;;;;;;;;;;;;;2215336;59;1215;-65
2022/08/17 09:46:30;;;;;;;;;;;;;;;;;;2215342;66;1249;-66
2022/08/17 09:49:10;;;;;;;;;;;;;;;;;;2214359;66;1236;-65
2022/08/17 09:51:47;;;;;;;;;;;;;;;;;;2214992;66;1221;-64
2022/08/17 09:54:22;;;;;;;;;;;;;;;;;;2214307;66;1227;-65
2022/08/17 09:57:03;;;;;;;;;;;;;;;;;;2214565;66;1959;-66
2022/08/17 09:59:43;;;;;;;;;;;;;;;;;;2215540;59;1275;-64
2022/08/17 10:02:28;;;;;;;;;;;;;;;;;;2215189;59;1559;-65
2022/08/17 10:05:07;;;;;;;;;;;;;;;;;;2214705;59;1255;-65
2022/08/17 10:07:43;;;;;;;;;;;;;;;;;;2216166;66;1117;-65
2022/08/17 10:10:19;;;;;;;;;;;;;;;;;;2215016;66;1084;-66
2022/08/17 10:12:58;;;;;;;;;;;;;;;;;;2215485;66;1341;-66
2022/08/17 10:15:38;;;;;;;;;;;;;;;;;;2214715;66;1932;-65
2022/08/17 10:18:20;;;;;;;;;;;;;;;;;;2215799;66;1214;-65
2022/08/17 10:26:11;;;;;;;;;;;;;;;;;;2214888;66;1312;-65
2022/08/17 10:26:51;;;;;;;;;;;;;;;;;;2215493;66;2214;-65
2022/08/17 10:29:28;;;;;;;;;;;;;;;;;;2214538;66;1254;-66
2022/08/17 10:32:07;;;;;;;;;;;;;;;;;;2218414;53;3763;-76
2022/08/17 10:34:55;;;;;;;;;;;;;;;;;;2216452;66;1184;-76
2022/08/17 10:37:38;;;;;;;;;;;;;;;;;;2214559;66;1365;-77
2022/08/17 10:40:22;;;;;;;;;;;;;;;;;;2217114;66;1215;-77
2022/08/17 10:42:58;;;;;;;;;;;;;;;;;;2216985;58;1269;-77
2022/08/17 10:45:35;;;;;;;;;;;;;;;;;;2219464;58;2271;-73
2022/08/17 10:48:29;;;;;;;;;;;;;;;;;;2213337;53;3621;-73
2022/08/17 10:51:06;;;;;;;;;;;;;;;;;;2212006;59;1202;-74
2022/08/17 10:54:00;;;;;;;;;;;;;;;;;;2212641;59;1276;-73
2022/08/17 10:56:51;;;;;;;;;;;;;;;;;;2212373;67;1967;-73
2022/08/17 10:59:42;;;;;;;;;;;;;;;;;;2212294;59;1217;-73
2022/08/17 11:02:19;;;;;;;;;;;;;;;;;;2211651;59;1564;-72
2022/08/17 11:04:56;;;;;;;;;;;;;;;;;;2211208;59;1262;-73
2022/08/17 11:07:42;;;;;;;;;;;;;;;;;;2210304;67;1182;-72
2022/08/17 11:10:27;;;;;;;;;;;;;;;;;;2210118;59;1162;-73
2022/08/17 11:13:04;;;;;;;;;;;;;;;;;;2209917;67;1252;-73
2022/08/17 11:15:50;;;;;;;;;;;;;;;;;;2210899;67;1929;-73
2022/08/17 11:18:38;;;;;;;;;;;;;;;;;;2210243;59;1233;-73
2022/08/17 11:21:19;;;;;;;;;;;;;;;;;;2210112;67;1324;-73
2022/08/17 11:24:01;;;;;;;;;;;;;;;;;;2209776;59;1298;-73
2022/08/17 11:26:41;;;;;;;;;;;;;;;;;;2209762;67;1300;-73
2022/08/17 11:29:19;;;;;;;;;;;;;;;;;;2209230;59;1091;-73
2022/08/17 11:32:00;;;;;;;;;;;;;;;;;;2209589;59;1284;-74
2022/08/17 11:34:33;;;;;;;;;;;;;;;;;;2210256;59;1222;-72
2022/08/17 11:37:29;;;;;;;;;;;;;;;;;;2209329;59;2047;-73
2022/08/17 11:40:20;;;;;;;;;;;;;;;;;;2210563;67;1282;-73
2022/08/17 11:43:09;;;;;;;;;;;;;;;;;;2209374;59;1396;-73
2022/08/17 11:45:54;;;;;;;;;;;;;;;;;;2210391;67;1242;-72
2022/08/17 11:51:39;;;;;;;;;;;;;;;;;;2209641;67;1116;-72
2022/08/17 11:54:33;;;;;;;;;;;;;;;;;;2211927;67;1283;-73
2022/08/17 11:57:20;;;;;;;;;;;;;;;;;;2210423;67;1921;-73
2022/08/17 11:59:58;;;;;;;;;;;;;;;;;;2209712;59;1302;-72
2022/08/17 12:02:42;;;;;;;;;;;;;;;;;;2210274;59;1592;-72
2022/08/17 12:05:34;;;;;;;;;;;;;;;;;;2209934;59;1139;-72
2022/08/17 12:08:13;;;;;;;;;;;;;;;;;;2210442;67;1236;-73
2022/08/17 12:11:07;;;;;;;;;;;;;;;;;;2210419;59;2296;-72
2022/08/17 12:13:45;;;;;;;;;;;;;;;;;;2208982;59;1725;-73
2022/08/17 12:16:22;;;;;;;;;;;;;;;;;;2210220;67;1936;-73
2022/08/17 12:18:57;;;;;;;;;;;;;;;;;;2210737;59;2188;-73
2022/08/17 12:21:36;;;;;;;;;;;;;;;;;;2209939;67;1191;-72
2022/08/17 12:24:13;;;;;;;;;;;;;;;;;;2209032;67;1225;-72
2022/08/17 12:26:55;;;;;;;;;;;;;;;;;;2210693;59;1230;-73
2022/08/17 12:29:30;;;;;;;;;;;;;;;;;;2208869;67;2322;-72
2022/08/17 12:32:07;;;;;;;;;;;;;;;;;;2210717;67;1238;-73
2022/08/17 12:34:41;;;;;;;;;;;;;;;;;;2210409;67;1259;-72
2022/08/17 12:37:17;;;;;;;;;;;;;;;;;;2209837;59;1988;-72
2022/08/17 12:39:55;;;;;;;;;;;;;;;;;;2211099;67;1086;-73
2022/08/17 12:42:30;;;;;;;;;;;;;;;;;;2209893;59;1288;-73
2022/08/17 12:45:06;;;;;;;;;;;;;;;;;;2210294;67;1270;-73
2022/08/17 12:47:42;;;;;;;;;;;;;;;;;;2210238;59;1306;-73
2022/08/17 12:50:16;;;;;;;;;;;;;;;;;;2210392;67;1178;-73
2022/08/17 12:52:50;;;;;;;;;;;;;;;;;;2210568;67;1118;-72
2022/08/17 12:55:25;;;;;;;;;;;;;;;;;;2208447;59;1261;-73
2022/08/17 12:57:59;;;;;;;;;;;;;;;;;;2209506;67;1939;-73
2022/08/17 13:00:33;;;;;;;;;;;;;;;;;;2209725;59;1196;-72
2022/08/17 13:03:15;;;;;;;;;;;;;;;;;;2209393;59;1573;-73
2022/08/17 13:05:57;;;;;;;;;;;;;;;;;;2210250;67;1327;-73
2022/08/17 13:08:36;;;;;;;;;;;;;;;;;;2209904;67;1251;-72
2022/08/17 13:11:11;;;;;;;;;;;;;;;;;;2208839;67;1326;-72
2022/08/17 13:13:45;;;;;;;;;;;;;;;;;;2209706;67;1105;-72
2022/08/17 13:16:20;;;;;;;;;;;;;;;;;;2209842;67;1995;-72
2022/08/17 13:18:57;;;;;;;;;;;;;;;;;;2210087;67;1163;-72
2022/08/17 13:21:32;;;;;;;;;;;;;;;;;;2209078;59;1057;-72
2022/08/17 13:24:06;;;;;;;;;;;;;;;;;;2209966;67;1117;-73
2022/08/17 13:26:41;;;;;;;;;;;;;;;;;;2210112;59;1304;-73
2022/08/17 13:29:22;;;;;;;;;;;;;;;;;;2210798;59;1180;-72
2022/08/17 13:31:57;;;;;;;;;;;;;;;;;;2210655;59;1628;-72
2022/08/17 13:34:39;;;;;;;;;;;;;;;;;;2211621;59;1309;-72
2022/08/17 13:37:19;;;;;;;;;;;;;;;;;;2209732;59;1989;-73
2022/08/17 13:39:53;;;;;;;;;;;;;;;;;;2211343;67;1178;-72
2022/08/17 13:42:37;;;;;;;;;;;;;;;;;;2210993;67;1332;-72
2022/08/17 13:45:29;;;;;;;;;;;;;;;;;;2210576;59;1259;-73
2022/08/17 13:48:10;;;;;;;;;;;;;;;;;;2210222;67;1217;-73
2022/08/17 13:50:48;;;;;;;;;;;;;;;;;;2211292;67;1143;-72
2022/08/17 13:53:23;;;;;;;;;;;;;;;;;;2211297;67;1286;-72
2022/08/17 13:55:57;;;;;;;;;;;;;;;;;;2210291;59;1318;-73
2022/08/17 13:58:32;;;;;;;;;;;;;;;;;;2210955;59;1190;-73
2022/08/17 14:01:20;;;;;;;;;;;;;;;;;;2211758;59;1202;-73
2022/08/17 14:03:53;;;;;;;;;;;;;;;;;;2213177;59;1605;-72
2022/08/17 14:06:33;;;;;;;;;;;;;;;;;;2212149;59;1222;-72
2022/08/17 14:09:06;;;;;;;;;;;;;;;;;;2211065;67;1133;-72
2022/08/17 14:11:39;;;;;;;;;;;;;;;;;;2211775;59;1281;-72
2022/08/17 14:14:13;;;;;;;;;;;;;;;;;;2211476;67;1193;-73
2022/08/17 14:16:46;;;;;;;;;;;;;;;;;;2211125;67;1929;-72
2022/08/17 14:19:20;;;;;;;;;;;;;;;;;;2212191;67;1163;-72
2022/08/17 14:21:59;;;;;;;;;;;;;;;;;;2211871;59;1259;-72
2022/08/17 14:24:33;;;;;;;;;;;;;;;;;;2211194;67;1119;-72
2022/08/17 14:27:08;;;;;;;;;;;;;;;;;;2210925;67;1245;-72
2022/08/17 14:29:42;;;;;;;;;;;;;;;;;;2210541;59;1119;-72
2022/08/17 14:32:18;;;;;;;;;;;;;;;;;;2211235;67;1158;-72
2022/08/17 14:34:53;;;;;;;;;;;;;;;;;;2211347;59;1378;-73
2022/08/17 14:37:29;;;;;;;;;;;;;;;;;;2212398;59;1973;-72
2022/08/17 14:40:05;;;;;;;;;;;;;;;;;;2211439;59;1224;-72
2022/08/17 14:42:39;;;;;;;;;;;;;;;;;;2212087;59;1224;-72
2022/08/17 14:45:13;;;;;;;;;;;;;;;;;;2210864;59;1175;-73
2022/08/17 14:47:46;;;;;;;;;;;;;;;;;;2210735;59;1253;-72
2022/08/17 14:50:20;;;;;;;;;;;;;;;;;;2211234;59;1179;-72
2022/08/17 14:52:56;;;;;;;;;;;;;;;;;;2211044;67;1246;-73
2022/08/17 14:55:29;;;;;;;;;;;;;;;;;;2211479;59;1088;-72
2022/08/17 14:58:02;;;;;;;;;;;;;;;;;;2211017;67;1929;-72
2022/08/17 15:00:36;;;;;;;;;;;;;;;;;;2210835;67;1238;-72
2022/08/17 15:03:10;;;;;;;;;;;;;;;;;;2209460;59;1275;-72
2022/08/17 15:05:45;;;;;;;;;;;;;;;;;;2211366;67;1304;-72
2022/08/17 15:08:21;;;;;;;;;;;;;;;;;;2211990;67;1212;-73
2022/08/17 15:10:54;;;;;;;;;;;;;;;;;;2211311;59;1238;-72
2022/08/17 15:13:28;;;;;;;;;;;;;;;;;;2211522;67;1184;-72
2022/08/17 15:16:01;;;;;;;;;;;;;;;;;;2212047;67;1311;-72
2022/08/17 15:18:34;;;;;;;;;;;;;;;;;;2211159;67;1957;-72
2022/08/17 15:21:08;;;;;;;;;;;;;;;;;;2212094;59;1207;-72
2022/08/17 15:23:45;;;;;;;;;;;;;;;;;;2211591;59;1214;-72
2022/08/17 15:26:18;;;;;;;;;;;;;;;;;;2210426;67;1270;-72
2022/08/17 15:28:54;;;;;;;;;;;;;;;;;;2212100;67;1167;-72
2022/08/17 15:31:28;;;;;;;;;;;;;;;;;;2211223;67;1290;-72
2022/08/17 15:34:03;;;;;;;;;;;;;;;;;;2211192;67;1249;-72
2022/08/17 15:36:37;;;;;;;;;;;;;;;;;;2210571;59;2435;-72
2022/08/17 15:39:13;;;;;;;;;;;;;;;;;;2211395;67;1184;-72
2022/08/17 15:41:46;;;;;;;;;;;;;;;;;;2210520;67;1151;-72
2022/08/17 15:44:19;;;;;;;;;;;;;;;;;;2210408;59;1187;-72
2022/08/17 15:46:52;;;;;;;;;;;;;;;;;;2210677;59;1256;-72
2022/08/17 15:49:26;;;;;;;;;;;;;;;;;;2210187;67;1260;-73
2022/08/17 15:51:59;;;;;;;;;;;;;;;;;;2211530;59;1318;-72
2022/08/17 15:54:35;;;;;;;;;;;;;;;;;;2211772;59;1253;-73
2022/08/17 15:57:08;;;;;;;;;;;;;;;;;;2211797;67;1940;-72
2022/08/17 15:59:43;;;;;;;;;;;;;;;;;;2212739;59;1255;-72
2022/08/17 16:02:18;;;;;;;;;;;;;;;;;;2211976;59;1660;-73
2022/08/17 16:04:51;;;;;;;;;;;;;;;;;;2212439;59;1303;-73
2022/08/17 16:07:24;;;;;;;;;;;;;;;;;;2210588;67;1284;-72
2022/08/17 16:10:00;;;;;;;;;;;;;;;;;;2211729;67;1147;-72
2022/08/17 16:12:34;;;;;;;;;;;;;;;;;;2209641;59;1675;-73
2022/08/17 16:15:07;;;;;;;;;;;;;;;;;;2210148;59;1208;-73
2022/08/17 16:17:41;;;;;;;;;;;;;;;;;;2210312;67;1984;-72
2022/08/17 16:20:15;;;;;;;;;;;;;;;;;;2210361;67;1242;-72
2022/08/17 16:22:48;;;;;;;;;;;;;;;;;;2210062;67;1123;-72
2022/08/17 16:25:25;;;;;;;;;;;;;;;;;;2209656;67;1262;-72
2022/08/17 16:27:59;;;;;;;;;;;;;;;;;;2209254;59;1333;-72
2022/08/17 16:30:32;;;;;;;;;;;;;;;;;;2209984;67;1167;-72
2022/08/17 16:33:05;;;;;;;;;;;;;;;;;;2209533;67;1172;-72
2022/08/17 16:35:40;;;;;;;;;;;;;;;;;;2210437;59;1287;-72
2022/08/17 16:38:13;;;;;;;;;;;;;;;;;;2210992;67;1988;-72
2022/08/17 16:40:49;;;;;;;;;;;;;;;;;;2210501;67;1081;-72
2022/08/17 16:43:22;;;;;;;;;;;;;;;;;;2209771;59;1272;-72
2022/08/17 16:45:56;;;;;;;;;;;;;;;;;;2211460;59;1168;-69
2022/08/17 16:48:29;;;;;;;;;;;;;;;;;;2237531;53;2047;-64
2022/08/17 16:51:02;;;;;;;;;;;;;;;;;;2212297;67;1213;-65
2022/08/17 16:53:36;;;;;;;;;;;;;;;;;;2211727;67;1127;-64
2022/08/17 16:56:11;;;;;;;;;;;;;;;;;;2210984;67;1269;-65
2022/08/17 16:58:45;;;;;;;;;;;;;;;;;;2212123;67;1924;-64
2022/08/17 17:01:18;;;;;;;;;;;;;;;;;;2211427;59;1629;-65
2022/08/17 17:03:53;;;;;;;;;;;;;;;;;;2212329;59;1379;-64
2022/08/17 17:06:32;;;;;;;;;;;;;;;;;;2212185;67;1214;-64
2022/08/17 17:09:08;;;;;;;;;;;;;;;;;;2212176;67;1192;-65
2022/08/17 17:11:45;;;;;;;;;;;;;;;;;;2212066;67;1145;-65
2022/08/17 17:14:21;;;;;;;;;;;;;;;;;;2212297;67;1202;-63
2022/08/17 17:17:01;;;;;;;;;;;;;;;;;;2210216;67;1149;-66
2022/08/17 17:19:40;;;;;;;;;;;;;;;;;;2211222;59;1984;-64
2022/08/17 17:22:15;;;;;;;;;;;;;;;;;;2211129;67;1144;-64
2022/08/17 17:24:54;;;;;;;;;;;;;;;;;;2211838;67;1161;-64
2022/08/17 17:27:35;;;;;;;;;;;;;;;;;;2211976;67;1298;-64
2022/08/17 17:30:10;;;;;;;;;;;;;;;;;;2211189;67;1266;-65
2022/08/17 17:32:47;;;;;;;;;;;;;;;;;;2212260;67;1283;-65
2022/08/17 17:35:23;;;;;;;;;;;;;;;;;;2211683;67;1417;-66
2022/08/17 17:37:58;;;;;;;;;;;;;;;;;;2211386;67;1944;-65
2022/08/17 17:40:34;;;;;;;;;;;;;;;;;;2211902;67;1253;-66
2022/08/17 17:43:12;;;;;;;;;;;;;;;;;;2211481;59;1295;-65
2022/08/17 17:45:47;;;;;;;;;;;;;;;;;;2211889;67;1138;-65
2022/08/17 17:48:20;;;;;;;;;;;;;;;;;;2211266;67;1190;-66
2022/08/17 17:51:11;;;;;;;;;;;;;;;;;;2211349;67;1115;-66
2022/08/17 17:53:51;;;;;;;;;;;;;;;;;;2211810;67;1081;-66
2022/08/17 17:56:32;;;;;;;;;;;;;;;;;;2210005;67;1617;-66
2022/08/17 17:59:11;;;;;;;;;;;;;;;;;;2211514;67;1992;-65
2022/08/17 18:01:48;;;;;;;;;;;;;;;;;;2211628;59;1603;-65
2022/08/17 18:04:22;;;;;;;;;;;;;;;;;;2210765;59;1262;-64
2022/08/17 18:07:03;;;;;;;;;;;;;;;;;;2211351;67;1235;-65
2022/08/17 18:09:47;;;;;;;;;;;;;;;;;;2211758;67;1247;-65
2022/08/17 18:12:24;;;;;;;;;;;;;;;;;;2211071;59;1200;-63
2022/08/17 18:15:06;;;;;;;;;;;;;;;;;;2212200;67;1232;-64
2022/08/17 18:17:40;;;;;;;;;;;;;;;;;;2212395;67;1936;-65
2022/08/17 18:20:13;;;;;;;;;;;;;;;;;;2211238;59;1361;-66
2022/08/17 18:22:47;;;;;;;;;;;;;;;;;;2212477;67;1183;-65
2022/08/17 18:25:36;;;;;;;;;;;;;;;;;;2228762;53;3720;-53
2022/08/17 18:28:10;;;;;;;;;;;;;;;;;;2215417;59;2320;-52
2022/08/17 18:30:46;;;;;;;;;;;;;;;;;;2215591;59;2014;-53
2022/08/17 18:33:23;;;;;;;;;;;;;;;;;;2215570;59;1323;-52
2022/08/17 18:35:56;;;;;;;;;;;;;;;;;;2213916;59;2174;-52
2022/08/17 18:38:32;;;;;;;;;;;;;;;;;;2214394;67;1936;-53
2022/08/17 18:41:14;;;;;;;;;;;;;;;;;;2214675;67;1191;-54
2022/08/17 18:43:59;;;;;;;;;;;;;;;;;;2215080;59;1249;-53